createdAt,value
2023-11-25T00:00:53.987Z,1.52
2023-11-25T00:03:21.111Z,1.48
2023-11-25T00:05:47.967Z,0.73
2023-11-25T00:08:14.841Z,1.60
2023-11-25T00:10:41.727Z,1.63
2023-11-25T00:13:08.819Z,1.75
2023-11-25T00:15:35.727Z,1.17
2023-11-25T00:18:04.464Z,1.17
2023-11-25T00:20:31.329Z,1.73
2023-11-25T00:22:58.202Z,2.03
2023-11-25T00:25:25.894Z,1.20
2023-11-25T00:27:52.869Z,2.00
2023-11-25T00:30:22.457Z,1.45
2023-11-25T00:32:50.858Z,0.63
2023-11-25T00:35:17.767Z,1.45
2023-11-25T00:37:44.776Z,1.48
2023-11-25T00:40:12.247Z,1.75
2023-11-25T00:42:42.020Z,1.33
2023-11-25T00:45:13.327Z,0.70
2023-11-25T00:47:43.310Z,0.50
2023-11-25T00:50:11.976Z,1.65
2023-11-25T00:52:39.881Z,0.50
2023-11-25T00:55:08.605Z,1.20
2023-11-25T00:57:36.437Z,3.10
2023-11-25T01:00:06.321Z,0.50
2023-11-25T01:02:34.258Z,1.10
2023-11-25T01:05:01.264Z,0.22
2023-11-25T01:07:29.598Z,0.50
2023-11-25T01:09:56.614Z,0.32
2023-11-25T01:12:23.454Z,0.80
2023-11-25T01:14:50.345Z,2.83
2023-11-25T01:17:17.234Z,0.90
2023-11-25T01:19:44.194Z,0.65
2023-11-25T01:22:11.158Z,0.38
2023-11-25T01:24:38.096Z,0.52
2023-11-25T01:27:05.231Z,1.98
2023-11-25T01:29:32.199Z,1.25
2023-11-25T01:34:26.426Z,0.30
2023-11-25T01:36:53.690Z,1.38
2023-11-25T01:39:20.893Z,0.55
2023-11-25T01:41:47.725Z,0.35
2023-11-25T01:44:14.708Z,0.55
2023-11-25T01:46:45.003Z,0.40
2023-11-25T01:49:16.803Z,2.67
2023-11-25T01:51:47.075Z,0.75
2023-11-25T01:54:18.138Z,0.85
2023-11-25T01:56:50.055Z,1.55
2023-11-25T01:59:18.929Z,0.40
2023-11-25T02:01:46.956Z,0.28
2023-11-25T02:04:15.362Z,1.10
2023-11-25T02:06:42.433Z,1.13
2023-11-25T02:09:09.732Z,0.73
2023-11-25T02:11:58.491Z,1.85
2023-11-25T02:14:29.035Z,0.50
2023-11-25T02:17:01.633Z,0.63
2023-11-25T02:19:30.535Z,0.93
2023-11-25T02:21:57.796Z,0.95
2023-11-25T02:24:28.176Z,0.75
2023-11-25T02:27:01.955Z,0.70
2023-11-25T02:29:29.403Z,0.52
2023-11-25T02:31:56.532Z,1.23
2023-11-25T02:34:23.510Z,0.57
2023-11-25T02:36:50.401Z,1.35
2023-11-25T02:39:19.928Z,2.20
2023-11-25T02:41:50.148Z,0.90
2023-11-25T02:44:18.129Z,1.30
2023-11-25T02:46:49.659Z,1.38
2023-11-25T02:49:17.324Z,0.70
2023-11-25T02:51:55.927Z,1.65
2023-11-25T02:54:23.913Z,0.85
2023-11-25T02:56:51.439Z,2.15
2023-11-25T02:59:23.375Z,2.05
2023-11-25T03:01:51.275Z,0.43
2023-11-25T03:04:22.408Z,1.52
2023-11-25T03:09:20.466Z,1.08
2023-11-25T03:11:48.105Z,0.40
2023-11-25T03:14:16.883Z,1.15
2023-11-25T03:16:44.019Z,0.47
2023-11-25T03:19:12.359Z,1.08
2023-11-25T03:21:39.501Z,0.43
2023-11-25T03:24:09.483Z,1.50
2023-11-25T03:26:36.402Z,1.08
2023-11-25T03:29:03.197Z,0.60
2023-11-25T03:31:30.145Z,2.17
2023-11-25T03:33:57.239Z,1.02
2023-11-25T03:36:24.084Z,0.95
2023-11-25T03:38:51.652Z,0.50
2023-11-25T03:41:19.473Z,2.47
2023-11-25T03:43:46.441Z,1.50
2023-11-25T03:46:15.062Z,1.25
2023-11-25T03:48:42.160Z,0.75
2023-11-25T03:51:12.033Z,2.47
2023-11-25T03:53:38.986Z,2.60
2023-11-25T03:56:07.906Z,2.58
2023-11-25T03:58:35.489Z,0.90
2023-11-25T04:01:02.407Z,2.20
2023-11-25T04:03:29.271Z,3.03
2023-11-25T04:05:58.830Z,1.42
2023-11-25T04:08:25.741Z,0.95
2023-11-25T04:10:53.162Z,3.15
2023-11-25T04:13:20.222Z,0.50
2023-11-25T04:15:47.656Z,2.22
2023-11-25T04:18:14.714Z,1.30
2023-11-25T04:20:41.888Z,1.30
2023-11-25T04:23:09.590Z,1.73
2023-11-25T04:25:37.371Z,1.63
2023-11-25T04:28:06.097Z,3.53
2023-11-25T04:30:33.056Z,2.58
2023-11-25T04:33:00.588Z,2.20
2023-11-25T04:35:27.486Z,0.77
2023-11-25T04:37:54.287Z,1.77
2023-11-25T04:40:21.213Z,2.30
2023-11-25T04:42:48.192Z,2.33
2023-11-25T04:45:18.710Z,0.95
2023-11-25T04:47:46.947Z,2.58
2023-11-25T04:50:19.242Z,1.23
2023-11-25T04:52:46.270Z,1.85
2023-11-25T04:55:14.224Z,1.25
2023-11-25T04:57:41.713Z,1.65
2023-11-25T05:00:12.264Z,2.15
2023-11-25T05:02:39.790Z,0.80
2023-11-25T05:05:07.924Z,2.15
2023-11-25T05:07:35.752Z,2.80
2023-11-25T05:10:06.086Z,1.92
2023-11-25T05:12:33.088Z,2.20
2023-11-25T05:15:00.120Z,2.92
2023-11-25T05:17:28.137Z,3.35
2023-11-25T05:19:55.297Z,1.67
2023-11-25T05:22:22.976Z,1.80
2023-11-25T05:24:49.920Z,2.28
2023-11-25T05:27:17.006Z,3.70
2023-11-25T05:29:44.167Z,2.15
2023-11-25T05:32:11.363Z,1.88
2023-11-25T05:34:40.796Z,1.50
2023-11-25T05:37:09.500Z,2.38
2023-11-25T05:39:37.500Z,2.35
2023-11-25T05:42:06.529Z,1.42
2023-11-25T05:44:33.501Z,1.38
2023-11-25T05:47:00.609Z,2.35
2023-11-25T05:49:27.850Z,1.60
2023-11-25T05:51:55.525Z,1.83
2023-11-25T05:54:23.889Z,1.50
2023-11-25T05:56:50.726Z,1.30
2023-11-25T05:59:20.381Z,2.40
2023-11-25T06:01:47.420Z,1.52
2023-11-25T06:04:15.708Z,1.05
2023-11-25T06:06:43.772Z,4.43
2023-11-25T06:09:13.357Z,2.00
2023-11-25T06:11:40.836Z,1.95
2023-11-25T06:14:08.121Z,3.97
2023-11-25T06:16:38.261Z,1.75
2023-11-25T06:19:05.833Z,1.75
2023-11-25T06:21:32.819Z,3.85
2023-11-25T06:24:01.849Z,2.58
2023-11-25T06:26:28.835Z,3.13
2023-11-25T06:28:56.704Z,1.45
2023-11-25T06:31:23.728Z,1.90
2023-11-25T06:33:51.303Z,1.48
2023-11-25T06:36:18.209Z,2.22
2023-11-25T06:38:45.290Z,1.85
2023-11-25T06:41:13.295Z,3.33
2023-11-25T06:43:41.923Z,2.22
2023-11-25T06:46:09.624Z,3.20
2023-11-25T06:48:36.878Z,2.03
2023-11-25T06:51:04.750Z,3.65
2023-11-25T06:53:31.754Z,2.55
2023-11-25T06:55:59.820Z,2.88
2023-11-25T06:58:27.403Z,3.33
2023-11-25T07:00:55.424Z,2.30
2023-11-25T07:03:22.547Z,2.22
2023-11-25T07:05:49.499Z,2.03
2023-11-25T07:08:17.553Z,2.08
2023-11-25T07:10:55.356Z,1.10
2023-11-25T07:13:23.377Z,2.05
2023-11-25T07:15:50.320Z,1.80
2023-11-25T07:18:20.230Z,2.63
2023-11-25T07:20:48.436Z,2.30
2023-11-25T07:23:20.043Z,1.27
2023-11-25T07:25:47.267Z,2.00
2023-11-25T07:28:16.191Z,2.97
2023-11-25T07:30:44.029Z,3.58
2023-11-25T07:33:11.138Z,2.20
2023-11-25T07:35:38.865Z,2.05
2023-11-25T07:38:08.653Z,2.50
2023-11-25T07:40:35.793Z,4.53
2023-11-25T07:43:03.030Z,4.68
2023-11-25T07:45:29.862Z,4.85
2023-11-25T07:47:56.773Z,4.40
2023-11-25T07:50:23.668Z,4.28
2023-11-25T07:52:52.120Z,4.60
2023-11-25T07:55:20.061Z,3.15
2023-11-25T07:57:50.974Z,4.10
2023-11-25T08:00:19.504Z,2.67
2023-11-25T08:02:49.041Z,3.05
2023-11-25T08:05:23.783Z,2.88
2023-11-25T08:07:52.877Z,3.42
2023-11-25T08:10:21.528Z,6.47
2023-11-25T08:12:48.383Z,3.45
2023-11-25T08:15:15.572Z,2.42
2023-11-25T08:17:43.852Z,5.70
2023-11-25T08:20:11.977Z,6.25
2023-11-25T08:22:40.001Z,6.55
2023-11-25T08:25:09.552Z,6.00
2023-11-25T08:27:37.321Z,6.35
2023-11-25T08:30:10.017Z,3.22
2023-11-25T08:32:43.925Z,4.05
2023-11-25T08:35:11.813Z,2.35
2023-11-25T08:37:40.608Z,3.63
2023-11-25T08:40:11.231Z,3.95
2023-11-25T08:42:38.274Z,3.35
2023-11-25T08:45:05.740Z,4.45
2023-11-25T08:47:33.743Z,6.72
2023-11-25T08:50:00.971Z,5.05
2023-11-25T08:52:28.937Z,6.70
2023-11-25T08:54:55.919Z,2.83
2023-11-25T08:57:22.914Z,3.72
2023-11-25T08:59:49.930Z,4.40
2023-11-25T09:02:23.645Z,3.35
2023-11-25T09:05:03.125Z,3.33
2023-11-25T09:07:36.027Z,4.20
2023-11-25T09:10:06.847Z,4.97
2023-11-25T09:12:33.825Z,4.03
2023-11-25T09:15:01.387Z,4.43
2023-11-25T09:17:28.368Z,3.08
2023-11-25T09:19:55.953Z,4.05
2023-11-25T09:22:23.001Z,4.00
2023-11-25T09:24:49.824Z,2.35
2023-11-25T09:27:16.694Z,3.35
2023-11-25T09:29:44.089Z,2.92
2023-11-25T09:32:11.499Z,3.88
2023-11-25T09:34:40.190Z,4.95
2023-11-25T09:37:09.078Z,4.20
2023-11-25T09:39:36.413Z,4.18
2023-11-25T09:42:03.575Z,5.97
2023-11-25T09:44:32.313Z,3.97
2023-11-25T09:46:59.344Z,6.28
2023-11-25T09:49:26.473Z,3.55
2023-11-25T09:51:58.713Z,5.95
2023-11-25T09:54:26.057Z,7.03
2023-11-25T09:56:53.826Z,5.85
2023-11-25T09:59:20.753Z,6.72
2023-11-25T10:01:47.813Z,4.20
2023-11-25T10:04:17.152Z,3.97
2023-11-25T10:06:46.844Z,3.97
2023-11-25T10:09:14.089Z,4.32
2023-11-25T10:11:44.283Z,4.03
2023-11-25T10:14:15.017Z,3.10
2023-11-25T10:16:45.826Z,5.00
2023-11-25T10:19:23.703Z,3.10
2023-11-25T10:21:53.520Z,5.90
2023-11-25T10:24:23.789Z,5.82
2023-11-25T10:26:52.429Z,4.55
2023-11-25T10:29:22.495Z,6.72
2023-11-25T10:31:58.913Z,6.57
2023-11-25T10:34:27.234Z,4.93
2023-11-25T10:36:54.389Z,3.72
2023-11-25T10:39:23.483Z,5.13
2023-11-25T10:41:51.721Z,4.43
2023-11-25T10:44:19.439Z,3.30
2023-11-25T10:46:46.342Z,4.88
2023-11-25T10:49:15.064Z,4.45
2023-11-25T10:51:45.380Z,4.10
2023-11-25T10:54:13.792Z,3.13
2023-11-25T10:56:41.988Z,6.10
2023-11-25T10:59:14.386Z,3.47
2023-11-25T11:01:44.658Z,4.93
2023-11-25T11:04:37.692Z,3.25
2023-11-25T11:07:07.968Z,4.07
2023-11-25T11:09:36.788Z,3.35
2023-11-25T11:12:08.225Z,5.10
2023-11-25T11:14:46.613Z,3.80
2023-11-25T11:17:34.035Z,5.90
2023-11-25T11:20:03.120Z,5.40
2023-11-25T11:22:30.160Z,3.17
2023-11-25T11:25:08.841Z,5.30
2023-11-25T11:27:56.499Z,3.95
2023-11-25T11:30:50.924Z,4.38
2023-11-25T11:33:19.100Z,3.85
2023-11-25T11:35:48.272Z,2.78
2023-11-25T11:38:29.953Z,3.92
2023-11-25T11:41:22.864Z,3.83
2023-11-25T11:44:08.955Z,3.72
2023-11-25T11:46:40.409Z,3.72
2023-11-25T11:49:09.484Z,3.15
2023-11-25T11:51:36.745Z,5.10
2023-11-25T11:54:21.918Z,3.30
2023-11-25T11:57:02.778Z,4.05
2023-11-25T12:00:17.132Z,6.25
2023-11-25T12:02:44.719Z,7.38
2023-11-25T12:05:12.254Z,4.40
2023-11-25T12:07:40.599Z,7.85
2023-11-25T12:10:07.893Z,6.35
2023-11-25T12:12:41.974Z,7.32
2023-11-25T12:15:10.102Z,5.32
2023-11-25T12:17:37.298Z,5.78
2023-11-25T12:20:04.509Z,5.22
2023-11-25T12:22:31.907Z,5.78
2023-11-25T12:24:58.752Z,4.40
2023-11-25T12:27:28.648Z,7.00
2023-11-25T12:29:55.837Z,5.65
2023-11-25T12:32:22.786Z,5.38
2023-11-25T12:34:50.244Z,5.60
2023-11-25T12:37:17.531Z,7.03
2023-11-25T12:39:44.948Z,4.45
2023-11-25T12:42:13.398Z,6.97
2023-11-25T12:44:51.398Z,3.90
2023-11-25T12:47:18.555Z,6.60
2023-11-25T12:49:46.451Z,6.90
2023-11-25T12:52:24.652Z,6.63
2023-11-25T12:54:54.139Z,5.38
2023-11-25T12:57:27.176Z,4.80
2023-11-25T12:59:54.081Z,5.75
2023-11-25T13:02:21.456Z,5.35
2023-11-25T13:04:52.088Z,5.45
2023-11-25T13:07:35.602Z,6.25
2023-11-25T13:10:04.095Z,7.10
2023-11-25T13:12:33.004Z,4.93
2023-11-25T13:14:59.982Z,6.72
2023-11-25T13:17:26.947Z,3.88
2023-11-25T13:19:54.378Z,6.43
2023-11-25T13:22:21.322Z,4.70
2023-11-25T13:24:48.219Z,6.82
2023-11-25T13:27:15.206Z,4.70
2023-11-25T13:29:45.871Z,7.43
2023-11-25T13:32:12.774Z,5.90
2023-11-25T13:34:42.466Z,4.82
2023-11-25T13:37:09.399Z,6.20
2023-11-25T13:39:37.277Z,5.43
2023-11-25T13:42:06.271Z,3.40
2023-11-25T13:44:33.246Z,6.55
2023-11-25T13:47:00.677Z,4.95
2023-11-25T13:49:30.836Z,6.75
2023-11-25T13:51:58.462Z,8.55
2023-11-25T13:54:26.282Z,6.35
2023-11-25T13:56:53.067Z,7.63
2023-11-25T13:59:20.260Z,5.78
2023-11-25T14:01:48.507Z,5.32
2023-11-25T14:04:15.563Z,6.90
2023-11-25T14:06:42.385Z,4.97
2023-11-25T14:09:12.619Z,5.05
2023-11-25T14:11:39.424Z,3.72
2023-11-25T14:14:07.116Z,3.00
2023-11-25T14:16:34.076Z,4.47
2023-11-25T14:19:01.260Z,3.97
2023-11-25T14:21:28.083Z,4.18
2023-11-25T14:23:55.897Z,4.22
2023-11-25T14:26:22.865Z,2.28
2023-11-25T14:28:50.273Z,3.55
2023-11-25T14:31:17.162Z,4.20
2023-11-25T14:33:44.049Z,4.15
2023-11-25T14:36:13.243Z,2.78
2023-11-25T14:38:40.089Z,4.78
2023-11-25T14:41:07.167Z,3.88
2023-11-25T14:43:34.041Z,4.93
2023-11-25T14:46:01.931Z,4.63
2023-11-25T14:48:28.825Z,4.05
2023-11-25T14:50:55.809Z,4.85
2023-11-25T14:53:23.046Z,4.75
2023-11-25T14:55:51.717Z,5.38
2023-11-25T14:58:18.616Z,6.22
2023-11-25T15:00:45.726Z,6.50
2023-11-25T15:03:13.718Z,5.07
2023-11-25T15:05:40.749Z,4.95
2023-11-25T15:08:07.759Z,6.45
2023-11-25T15:10:34.831Z,6.88
2023-11-25T15:13:02.070Z,6.32
2023-11-25T15:15:29.535Z,3.90
2023-11-25T15:17:56.473Z,4.65
2023-11-25T15:20:24.059Z,5.38
2023-11-25T15:22:52.484Z,5.43
2023-11-25T15:25:19.563Z,3.70
2023-11-25T15:27:46.432Z,5.55
2023-11-25T15:30:13.802Z,4.28
2023-11-25T15:32:43.830Z,6.25
2023-11-25T15:35:11.764Z,4.90
2023-11-25T15:37:38.862Z,4.93
2023-11-25T15:40:06.319Z,5.15
2023-11-25T15:42:34.474Z,5.18
2023-11-25T15:45:01.254Z,3.70
2023-11-25T15:47:28.078Z,4.30
2023-11-25T15:49:54.996Z,4.00
2023-11-25T15:52:21.904Z,4.22
2023-11-25T15:54:50.861Z,5.28
2023-11-25T15:57:17.709Z,5.13
2023-11-25T15:59:44.592Z,5.13
2023-11-25T16:02:11.492Z,4.28
2023-11-25T16:04:38.646Z,3.88
2023-11-25T16:07:08.118Z,5.72
2023-11-25T16:09:36.844Z,7.80
2023-11-25T16:12:04.262Z,6.50
2023-11-25T16:14:31.434Z,5.47
2023-11-25T16:16:58.498Z,6.15
2023-11-25T16:19:27.798Z,4.00
2023-11-25T16:21:55.874Z,3.10
2023-11-25T16:24:24.613Z,3.03
2023-11-25T16:26:51.525Z,1.90
2023-11-25T16:29:19.598Z,3.25
2023-11-25T16:31:46.828Z,3.92
2023-11-25T16:34:13.973Z,3.28
2023-11-25T16:36:42.014Z,4.25
2023-11-25T16:39:11.284Z,2.55
2023-11-25T16:41:38.842Z,2.42
2023-11-25T16:44:06.035Z,2.42
2023-11-25T16:46:33.796Z,2.40
2023-11-25T16:49:07.580Z,5.15
2023-11-25T16:51:36.026Z,2.53
2023-11-25T16:54:02.828Z,4.00
2023-11-25T16:56:29.831Z,2.58
2023-11-25T16:58:56.703Z,2.92
2023-11-25T17:01:23.610Z,4.00
2023-11-25T17:03:50.683Z,4.85
2023-11-25T17:06:17.768Z,4.25
2023-11-25T17:08:46.434Z,3.53
2023-11-25T17:11:13.416Z,4.93
2023-11-25T17:13:40.313Z,3.70
2023-11-25T17:16:07.559Z,3.47
2023-11-25T17:18:34.885Z,4.00
2023-11-25T17:21:02.748Z,3.53
2023-11-25T17:23:29.580Z,4.18
2023-11-25T17:25:56.547Z,4.18
2023-11-25T17:28:23.861Z,4.80
2023-11-25T17:30:50.697Z,4.35
2023-11-25T17:33:17.616Z,3.55
2023-11-25T17:35:47.934Z,4.80
2023-11-25T17:38:15.404Z,4.13
2023-11-25T17:40:42.399Z,4.45
2023-11-25T17:43:09.296Z,4.15
2023-11-25T17:45:36.277Z,6.25
2023-11-25T17:48:03.670Z,10.45
2023-11-25T17:50:30.622Z,6.53
2023-11-25T17:53:06.778Z,5.15
2023-11-25T17:55:39.428Z,6.72
2023-11-25T17:58:06.379Z,6.15
2023-11-25T18:00:33.212Z,9.70
2023-11-25T18:03:00.196Z,8.23
2023-11-25T18:05:27.118Z,7.07
2023-11-25T18:07:55.080Z,7.85
2023-11-25T18:10:22.073Z,6.75
2023-11-25T18:12:48.978Z,4.35
2023-11-25T18:15:15.888Z,7.82
2023-11-25T18:17:42.836Z,5.88
2023-11-25T18:20:12.520Z,5.88
2023-11-25T18:22:42.531Z,5.60
2023-11-25T18:25:11.614Z,6.60
2023-11-25T18:27:42.680Z,10.52
2023-11-25T18:30:09.845Z,8.82
2023-11-25T18:32:36.713Z,8.15
2023-11-25T18:35:03.702Z,13.20
2023-11-25T18:37:30.618Z,10.10
2023-11-25T18:39:57.448Z,8.18
2023-11-25T18:42:24.377Z,6.15
2023-11-25T18:44:51.388Z,7.25
2023-11-25T18:47:18.233Z,11.07
2023-11-25T18:49:45.098Z,15.15
2023-11-25T18:52:11.921Z,5.93
2023-11-25T18:54:39.008Z,5.25
2023-11-25T18:57:07.521Z,3.95
2023-11-25T18:59:34.497Z,4.30
2023-11-25T19:02:01.431Z,3.10
2023-11-25T19:04:28.394Z,3.13
2023-11-25T19:06:55.306Z,3.70
2023-11-25T19:09:22.346Z,3.65
2023-11-25T19:11:50.231Z,4.60
2023-11-25T19:14:17.291Z,9.50
2023-11-25T19:16:44.378Z,5.57
2023-11-25T19:19:11.349Z,4.95
2023-11-25T19:21:38.244Z,5.10
2023-11-25T19:24:05.676Z,6.15
2023-11-25T19:26:32.639Z,4.38
2023-11-25T19:28:59.710Z,5.03
2023-11-25T19:31:26.577Z,5.15
2023-11-25T19:33:53.584Z,6.75
2023-11-25T19:36:20.474Z,8.23
2023-11-25T19:38:47.395Z,6.13
2023-11-25T19:41:14.283Z,5.68
2023-11-25T19:43:41.164Z,5.30
2023-11-25T19:46:10.868Z,8.18
2023-11-25T19:48:40.140Z,7.28
2023-11-25T19:51:08.947Z,6.15
2023-11-25T19:53:49.741Z,7.80
2023-11-25T19:56:19.249Z,4.45
2023-11-25T19:58:46.535Z,5.65
2023-11-25T20:01:13.474Z,6.18
2023-11-25T20:03:40.402Z,6.05
2023-11-25T20:06:07.523Z,8.23
2023-11-25T20:08:34.388Z,9.43
2023-11-25T20:11:04.141Z,4.93
2023-11-25T20:13:31.308Z,4.32
2023-11-25T20:15:59.639Z,3.03
2023-11-25T20:18:26.742Z,3.75
2023-11-25T20:20:53.800Z,3.70
2023-11-25T20:23:21.283Z,3.78
2023-11-25T20:25:48.346Z,4.18
2023-11-25T20:28:15.435Z,7.82
2023-11-25T20:30:42.343Z,7.25
2023-11-25T20:33:09.384Z,5.30
2023-11-25T20:35:36.416Z,5.15
2023-11-25T20:38:03.679Z,3.72
2023-11-25T20:40:31.025Z,3.97
2023-11-25T20:42:58.126Z,6.03
2023-11-25T20:45:25.325Z,5.15
2023-11-25T20:47:52.471Z,4.85
2023-11-25T20:50:19.487Z,4.55
2023-11-25T20:52:48.187Z,5.53
2023-11-25T20:55:15.282Z,6.55
2023-11-25T20:57:42.169Z,4.05
2023-11-25T21:00:13.389Z,5.50
2023-11-25T21:02:40.829Z,7.03
2023-11-25T21:05:08.126Z,6.32
2023-11-25T21:07:35.000Z,4.88
2023-11-25T21:10:02.013Z,5.80
2023-11-25T21:12:28.978Z,4.30
2023-11-25T21:14:55.819Z,4.32
2023-11-25T21:17:23.545Z,3.53
2023-11-25T21:19:50.451Z,3.35
2023-11-25T21:22:19.033Z,3.17
2023-11-25T21:24:45.851Z,4.22
2023-11-25T21:27:12.642Z,4.18
2023-11-25T21:29:39.481Z,4.30
2023-11-25T21:32:09.842Z,4.85
2023-11-25T21:34:37.317Z,4.93
2023-11-25T21:37:05.715Z,3.00
2023-11-25T21:39:32.808Z,4.00
2023-11-25T21:41:59.765Z,2.78
2023-11-25T21:44:26.670Z,2.45
2023-11-25T21:46:53.639Z,2.00
2023-11-25T21:49:20.613Z,2.45
2023-11-25T21:51:47.460Z,2.50
2023-11-25T21:54:14.309Z,3.10
2023-11-25T21:56:41.110Z,1.50
2023-11-25T21:59:07.999Z,1.58
2023-11-25T22:01:34.913Z,1.30
2023-11-25T22:04:02.720Z,1.92
2023-11-25T22:06:29.734Z,3.70
2023-11-25T22:08:57.821Z,1.30
2023-11-25T22:11:25.054Z,4.25
2023-11-25T22:13:52.512Z,2.25
2023-11-25T22:16:19.849Z,2.28
2023-11-25T22:18:46.766Z,3.33
2023-11-25T22:21:13.659Z,3.42
2023-11-25T22:23:48.473Z,4.40
2023-11-25T22:26:27.310Z,4.55
2023-11-25T22:28:54.386Z,3.88
2023-11-25T22:31:22.595Z,4.30
2023-11-25T22:33:50.678Z,3.28
2023-11-25T22:36:21.929Z,4.50
2023-11-25T22:41:15.593Z,9.32
2023-11-25T22:43:43.184Z,9.20
2023-11-25T22:46:10.203Z,5.70
2023-11-25T22:48:37.719Z,4.90
2023-11-25T22:51:06.837Z,7.03
2023-11-25T22:53:33.997Z,5.97
2023-11-25T22:56:00.872Z,6.53
2023-11-25T22:58:27.806Z,8.07
2023-11-25T23:00:56.046Z,4.90
2023-11-25T23:03:23.380Z,5.75
2023-11-25T23:05:50.313Z,6.47
2023-11-25T23:08:17.393Z,5.10
2023-11-25T23:10:44.441Z,3.90
2023-11-25T23:13:11.337Z,6.90
2023-11-25T23:15:38.129Z,6.75
2023-11-25T23:18:05.179Z,6.93
2023-11-25T23:20:32.123Z,7.55
2023-11-25T23:22:59.557Z,9.85
2023-11-25T23:25:26.939Z,8.02
2023-11-25T23:27:54.415Z,7.10
2023-11-25T23:30:21.629Z,6.63
2023-11-25T23:32:48.597Z,4.60
2023-11-25T23:35:15.587Z,4.88
2023-11-25T23:37:42.482Z,11.13
2023-11-25T23:40:10.866Z,11.68
2023-11-25T23:42:39.442Z,14.43
2023-11-25T23:45:06.931Z,12.25
2023-11-25T23:47:33.908Z,6.78
2023-11-25T23:50:01.580Z,6.40
2023-11-25T23:52:28.481Z,4.10
2023-11-25T23:54:56.139Z,3.13
2023-11-25T23:57:23.113Z,6.03
2023-11-25T23:59:50.213Z,3.42
